CheckWX is a tool to help pilots better visualize weather data.  It is not intended as a substitute for an official pre-flight weather briefing.

09:42:18 UTC

ESNG TAF
Gällivare Airport
Gällivare, Sweden
TAF AMD ESNG 180915Z 1809/1818 32005KT 8000 -SN BKN030 TEMPO 1809/1811 2500 SN TEMPO 1811/1818 1200 SN VV006

Feb-18@
09:00 UTC

Feb-18 @ 09:00 UTC

Feb-18@
18:00 UTC

Feb-18 @ 18:00 UTC

TAF AMD ESNG 180915Z 1809/1818 32005KT 8000 -SN BKN030
Wind
  • 320° at 5 KTS
Conditions
Light Snow
Cloud Levels
  • Broken at 3,000' AGL

Feb-18@
09:00 UTC

Feb-18 @ 09:00 UTC

Feb-18@
11:00 UTC

Feb-18 @ 11:00 UTC

TEMPO 1809/1811 2500 SN

Temporary

Temporary Changes expected for less than half the time period

Conditions
Snow

Feb-18@
11:00 UTC

Feb-18 @ 11:00 UTC

Feb-18@
18:00 UTC

Feb-18 @ 18:00 UTC

TEMPO 1811/1818 1200 SN VV006

Temporary

Temporary Changes expected for less than half the time period

Conditions
Snow
Cloud Levels
  • Vertical visibility at 600' AGL